createdAt,value
2023-11-09T00:01:10.111Z,691.65
2023-11-09T00:03:37.858Z,741.75
2023-11-09T00:06:04.780Z,741.45
2023-11-09T00:08:34.578Z,765.38
2023-11-09T00:11:01.056Z,789.90
2023-11-09T00:13:27.816Z,812.50
2023-11-09T00:15:56.732Z,886.40
2023-11-09T00:18:23.328Z,863.88
2023-11-09T00:20:51.199Z,847.35
2023-11-09T00:23:17.723Z,877.03
2023-11-09T00:25:44.305Z,884.35
2023-11-09T00:28:11.079Z,865.78
2023-11-09T00:30:37.460Z,891.92
2023-11-09T00:33:04.273Z,904.70
2023-11-09T00:35:31.207Z,928.33
2023-11-09T00:37:59.039Z,907.08
2023-11-09T00:40:25.472Z,910.75
2023-11-09T00:42:51.874Z,905.58
2023-11-09T00:45:18.795Z,901.28
2023-11-09T00:47:46.815Z,960.67
2023-11-09T00:50:14.237Z,925.67
2023-11-09T00:52:43.510Z,879.50
2023-11-09T00:55:10.422Z,881.15
2023-11-09T00:57:36.964Z,866.33
2023-11-09T01:00:04.780Z,843.92
2023-11-09T01:02:39.158Z,836.80
2023-11-09T01:05:07.726Z,835.00
2023-11-09T01:07:34.414Z,818.45
2023-11-09T01:10:01.166Z,810.85
2023-11-09T01:12:28.380Z,769.17
2023-11-09T01:14:54.745Z,710.70
2023-11-09T01:17:21.175Z,765.13
2023-11-09T01:19:47.579Z,666.88
2023-11-09T01:22:14.349Z,671.60
2023-11-09T01:24:41.077Z,631.30
2023-11-09T01:27:07.553Z,627.60
2023-11-09T01:29:34.343Z,649.58
2023-11-09T01:32:00.749Z,617.05
2023-11-09T01:34:27.155Z,592.72
2023-11-09T01:36:56.456Z,600.45
2023-11-09T01:39:25.882Z,605.53
2023-11-09T01:41:52.389Z,596.03
2023-11-09T01:44:18.864Z,558.28
2023-11-09T01:46:45.806Z,569.47
2023-11-09T01:49:14.257Z,554.28
2023-11-09T01:51:44.318Z,547.50
2023-11-09T01:54:11.839Z,537.10
2023-11-09T01:56:38.684Z,530.63
2023-11-09T01:59:06.026Z,505.75
2023-11-09T02:01:35.406Z,512.13
2023-11-09T02:04:03.022Z,481.02
2023-11-09T02:06:30.077Z,465.40
2023-11-09T02:08:57.788Z,462.17
2023-11-09T02:11:25.474Z,467.45
2023-11-09T02:13:51.920Z,458.98
2023-11-09T02:16:18.688Z,446.65
2023-11-09T02:18:45.815Z,391.95
2023-11-09T02:21:16.341Z,422.05
2023-11-09T02:23:44.838Z,446.92
2023-11-09T02:26:11.546Z,418.48
2023-11-09T02:28:37.933Z,437.10
2023-11-09T02:31:04.551Z,364.50
2023-11-09T02:33:30.995Z,385.40
2023-11-09T02:35:57.473Z,380.90
2023-11-09T02:38:23.960Z,426.20
2023-11-09T02:40:50.319Z,317.88
2023-11-09T02:43:16.966Z,340.38
2023-11-09T02:45:43.681Z,357.05
2023-11-09T02:48:10.257Z,326.42
2023-11-09T02:50:36.800Z,343.75
2023-11-09T02:53:03.197Z,282.27
2023-11-09T02:55:29.630Z,272.35
2023-11-09T02:57:56.129Z,289.08
2023-11-09T03:00:22.735Z,313.88
2023-11-09T03:02:49.205Z,262.90
2023-11-09T03:05:22.161Z,271.38
2023-11-09T03:07:49.460Z,243.23
2023-11-09T03:10:17.265Z,276.70
2023-11-09T03:12:43.843Z,191.05
2023-11-09T03:15:11.262Z,215.75
2023-11-09T03:17:42.848Z,463.80
2023-11-09T03:20:10.467Z,200.63
2023-11-09T03:22:38.208Z,207.25
2023-11-09T03:25:05.827Z,218.32
2023-11-09T03:27:32.513Z,231.02
2023-11-09T03:29:58.952Z,223.70
2023-11-09T03:32:25.353Z,200.13
2023-11-09T03:34:51.769Z,291.33
2023-11-09T03:37:18.176Z,172.35
2023-11-09T03:39:44.597Z,170.60
2023-11-09T03:42:12.862Z,194.50
2023-11-09T03:44:40.333Z,147.40
2023-11-09T03:47:07.011Z,173.88
2023-11-09T03:49:33.991Z,150.45
2023-11-09T03:52:00.421Z,171.38
2023-11-09T03:54:26.814Z,132.20
2023-11-09T03:56:53.189Z,127.38
2023-11-09T03:59:19.567Z,323.95
2023-11-09T04:01:45.952Z,111.35
2023-11-09T04:04:12.413Z,116.85
2023-11-09T04:06:38.840Z,115.32
2023-11-09T04:09:06.487Z,127.95
2023-11-09T04:11:32.993Z,114.70
2023-11-09T04:13:59.351Z,104.10
2023-11-09T04:16:26.937Z,111.57
2023-11-09T04:18:53.317Z,104.55
2023-11-09T04:21:19.765Z,111.72
2023-11-09T04:23:46.638Z,89.47
2023-11-09T04:26:14.015Z,93.22
2023-11-09T04:28:40.541Z,115.53
2023-11-09T04:31:07.110Z,99.97
2023-11-09T04:33:33.652Z,105.70
2023-11-09T04:36:01.493Z,103.80
2023-11-09T04:38:31.301Z,114.28
2023-11-09T04:41:05.692Z,114.97
2023-11-09T04:43:33.136Z,107.00
2023-11-09T04:46:06.774Z,113.43
2023-11-09T04:48:35.022Z,115.32
2023-11-09T04:51:04.991Z,137.05
2023-11-09T04:53:32.032Z,66.03
2023-11-09T04:56:10.647Z,72.35
2023-11-09T04:58:50.662Z,67.18
2023-11-09T05:01:55.633Z,47.40
2023-11-09T05:04:40.399Z,43.22
2023-11-09T05:07:07.670Z,38.90
2023-11-09T05:09:34.121Z,43.85
2023-11-09T05:12:00.578Z,49.38
2023-11-09T05:14:26.970Z,68.30
2023-11-09T05:16:53.458Z,81.78
2023-11-09T05:19:19.952Z,111.57
2023-11-09T05:21:46.354Z,112.53
2023-11-09T05:24:12.782Z,114.18
2023-11-09T05:26:39.955Z,128.60
2023-11-09T05:29:06.635Z,127.85
2023-11-09T05:31:36.741Z,133.82
2023-11-09T05:34:05.277Z,133.90
2023-11-09T05:36:35.312Z,168.45
2023-11-09T05:39:06.149Z,233.57
2023-11-09T05:41:33.507Z,250.70
2023-11-09T05:43:59.991Z,234.07
2023-11-09T05:46:29.362Z,272.58
2023-11-09T05:48:59.486Z,315.85
2023-11-09T05:51:27.882Z,349.30
2023-11-09T05:53:55.179Z,445.50
2023-11-09T05:56:24.466Z,424.42
2023-11-09T05:58:54.741Z,512.20
2023-11-09T06:01:21.505Z,470.95
2023-11-09T06:03:47.918Z,512.25
2023-11-09T06:06:14.367Z,548.20
2023-11-09T06:08:40.758Z,585.58
2023-11-09T06:11:07.185Z,643.08
2023-11-09T06:13:34.271Z,662.20
2023-11-09T06:16:01.754Z,690.92
2023-11-09T06:18:28.270Z,729.00
2023-11-09T06:20:54.716Z,656.58
2023-11-09T06:23:21.634Z,775.55
2023-11-09T06:25:49.277Z,734.35
2023-11-09T06:28:16.312Z,784.15
2023-11-09T06:30:42.732Z,797.67
2023-11-09T06:33:10.493Z,768.17
2023-11-09T06:35:37.095Z,812.63
2023-11-09T06:38:04.909Z,832.00
2023-11-09T06:40:33.033Z,803.38
2023-11-09T06:42:59.567Z,796.92
2023-11-09T06:45:26.055Z,866.55
2023-11-09T06:47:52.967Z,811.47
2023-11-09T06:50:20.415Z,819.08
2023-11-09T06:52:47.876Z,832.92
2023-11-09T06:55:17.831Z,836.08
2023-11-09T06:57:45.668Z,857.72
2023-11-09T07:00:12.916Z,859.60
2023-11-09T07:02:40.225Z,831.10
2023-11-09T07:05:08.276Z,842.17
2023-11-09T07:07:35.897Z,897.25
2023-11-09T07:10:02.646Z,860.22
2023-11-09T07:12:29.694Z,851.97
2023-11-09T07:14:56.212Z,859.70
2023-11-09T07:17:23.480Z,880.67
2023-11-09T07:19:52.870Z,874.20
2023-11-09T07:22:22.455Z,886.60
2023-11-09T07:25:07.998Z,864.42
2023-11-09T07:27:39.632Z,833.50
2023-11-09T07:30:06.628Z,847.83
2023-11-09T07:32:33.365Z,836.00
2023-11-09T07:34:59.856Z,820.17
2023-11-09T07:37:28.536Z,834.10
2023-11-09T07:39:55.108Z,766.80
2023-11-09T07:42:23.889Z,752.33
2023-11-09T07:44:50.307Z,739.10
2023-11-09T07:47:16.802Z,703.42
2023-11-09T07:49:43.248Z,707.60
2023-11-09T07:52:11.180Z,678.70
2023-11-09T07:54:37.540Z,656.50
2023-11-09T07:57:04.321Z,630.35
2023-11-09T07:59:30.696Z,598.55
2023-11-09T08:02:01.751Z,526.97
2023-11-09T08:04:29.562Z,511.55
2023-11-09T08:06:56.060Z,429.85
2023-11-09T08:09:22.753Z,401.77
2023-11-09T08:11:49.314Z,395.13
2023-11-09T08:14:15.701Z,400.55
2023-11-09T08:16:42.793Z,393.60
2023-11-09T08:19:09.379Z,390.23
2023-11-09T08:21:37.093Z,379.42
2023-11-09T08:24:03.778Z,404.88
2023-11-09T08:26:30.687Z,424.27
2023-11-09T08:28:59.415Z,438.42
2023-11-09T08:31:28.930Z,440.27
2023-11-09T08:33:56.154Z,438.98
2023-11-09T08:36:22.732Z,388.30
2023-11-09T08:38:49.409Z,362.63
2023-11-09T08:41:16.836Z,344.83
2023-11-09T08:43:43.827Z,320.25
2023-11-09T08:46:11.565Z,295.85
2023-11-09T08:48:41.402Z,301.80
2023-11-09T08:51:14.741Z,234.93
2023-11-09T08:53:42.124Z,186.70
2023-11-09T08:56:08.570Z,137.82
2023-11-09T08:58:39.550Z,175.68
2023-11-09T09:01:17.650Z,168.93
2023-11-09T09:03:46.146Z,142.70
2023-11-09T09:06:13.984Z,118.00
2023-11-09T09:08:40.667Z,100.78
2023-11-09T09:11:12.444Z,100.20
2023-11-09T09:13:39.083Z,83.10
2023-11-09T09:16:08.138Z,92.22
2023-11-09T09:18:34.720Z,89.13
2023-11-09T09:21:02.110Z,82.82
2023-11-09T09:23:28.629Z,86.70
2023-11-09T09:25:55.785Z,79.32
2023-11-09T09:28:22.275Z,69.70
2023-11-09T09:30:50.243Z,60.13
2023-11-09T09:33:17.768Z,70.68
2023-11-09T09:35:48.634Z,72.38
2023-11-09T09:38:16.806Z,64.75
2023-11-09T09:40:48.339Z,54.92
2023-11-09T09:43:19.267Z,49.17
2023-11-09T09:45:48.252Z,46.22
2023-11-09T09:48:17.075Z,55.35
2023-11-09T09:50:44.064Z,56.60
2023-11-09T09:53:10.561Z,58.10
2023-11-09T09:55:38.657Z,62.90
2023-11-09T09:58:09.584Z,56.80
2023-11-09T10:00:38.000Z,55.80
2023-11-09T10:03:07.492Z,41.92
2023-11-09T10:05:37.067Z,54.85
2023-11-09T10:08:06.279Z,50.63
2023-11-09T10:10:35.540Z,69.70
2023-11-09T10:13:15.205Z,76.15
2023-11-09T10:15:44.814Z,65.72
2023-11-09T10:18:13.967Z,70.40
2023-11-09T10:20:43.832Z,80.57
2023-11-09T10:23:13.411Z,78.22
2023-11-09T10:25:42.785Z,69.45
2023-11-09T10:28:14.443Z,46.75
2023-11-09T10:30:45.048Z,53.40
2023-11-09T10:33:13.499Z,45.22
2023-11-09T10:35:42.026Z,41.05
2023-11-09T10:38:10.545Z,43.85
2023-11-09T10:40:38.024Z,56.35
2023-11-09T10:43:06.335Z,59.63
2023-11-09T10:45:39.342Z,61.42
2023-11-09T10:48:11.691Z,58.78
2023-11-09T10:50:48.581Z,62.83
2023-11-09T10:53:16.657Z,49.30
2023-11-09T10:55:50.215Z,37.45
2023-11-09T10:58:21.928Z,35.45
2023-11-09T11:00:53.217Z,34.65
2023-11-09T11:03:43.234Z,33.78
2023-11-09T11:06:18.219Z,31.88
2023-11-09T11:08:52.279Z,31.48
2023-11-09T11:14:01.811Z,26.98
2023-11-09T11:16:42.242Z,30.75
2023-11-09T11:19:52.855Z,30.20
2023-11-09T11:23:04.686Z,26.65
2023-11-09T11:25:46.641Z,28.42
2023-11-09T11:28:18.358Z,20.55
2023-11-09T11:30:45.615Z,25.75
2023-11-09T11:33:23.517Z,21.17
2023-11-09T11:35:56.494Z,25.00
2023-11-09T11:38:30.946Z,25.52
2023-11-09T11:41:01.517Z,26.83
2023-11-09T11:43:38.028Z,28.35
2023-11-09T11:46:09.503Z,25.25
2023-11-09T11:48:37.631Z,23.80
2023-11-09T11:51:07.931Z,18.67
2023-11-09T11:53:35.488Z,19.40
2023-11-09T11:56:14.294Z,22.42
2023-11-09T11:58:53.586Z,19.35
2023-11-09T12:01:32.672Z,20.88
2023-11-09T12:04:04.598Z,20.88
2023-11-09T12:06:34.211Z,22.30
2023-11-09T12:09:02.743Z,25.48
2023-11-09T12:11:37.487Z,24.15
2023-11-09T12:14:09.493Z,23.75
2023-11-09T12:16:37.252Z,24.05
2023-11-09T12:19:07.040Z,28.15
2023-11-09T12:21:35.371Z,30.33
2023-11-09T12:24:02.559Z,27.30
2023-11-09T12:26:31.154Z,31.17
2023-11-09T12:28:57.667Z,32.70
2023-11-09T12:31:28.987Z,30.42
2023-11-09T12:34:07.973Z,24.65
2023-11-09T12:36:39.383Z,31.70
2023-11-09T12:39:23.248Z,35.20
2023-11-09T12:41:51.025Z,26.38
2023-11-09T12:44:22.615Z,28.58
2023-11-09T12:46:49.656Z,37.70
2023-11-09T12:49:16.274Z,36.20
2023-11-09T12:51:43.013Z,35.72
2023-11-09T12:54:10.008Z,36.03
2023-11-09T12:56:39.433Z,33.50
2023-11-09T12:59:08.986Z,29.88
2023-11-09T13:01:35.464Z,39.05
2023-11-09T13:04:01.943Z,33.92
2023-11-09T13:06:32.063Z,38.97
2023-11-09T13:09:30.492Z,40.25
2023-11-09T13:12:20.443Z,37.20
2023-11-09T13:14:53.759Z,33.38
2023-11-09T13:17:21.117Z,37.27
2023-11-09T13:19:51.836Z,41.60
2023-11-09T13:22:19.139Z,35.65
2023-11-09T13:24:47.621Z,31.05
2023-11-09T13:27:24.594Z,27.02
2023-11-09T13:29:52.036Z,33.47
2023-11-09T13:32:26.425Z,28.55
2023-11-09T13:35:11.686Z,27.83
2023-11-09T13:37:39.807Z,23.00
2023-11-09T13:40:19.087Z,28.05
2023-11-09T13:42:46.958Z,31.25
2023-11-09T13:45:32.665Z,38.50
2023-11-09T13:48:02.710Z,41.25
2023-11-09T13:50:31.081Z,40.90
2023-11-09T13:52:57.743Z,43.75
2023-11-09T13:55:42.759Z,40.63
2023-11-09T13:58:16.936Z,39.97
2023-11-09T14:00:43.438Z,40.22
2023-11-09T14:03:13.675Z,40.95
2023-11-09T14:05:40.716Z,46.65
2023-11-09T14:08:16.393Z,23.85
2023-11-09T14:10:42.941Z,21.33
2023-11-09T14:13:12.160Z,23.42
2023-11-09T14:15:50.592Z,26.35
2023-11-09T14:18:23.681Z,21.35
2023-11-09T14:20:53.591Z,22.08
2023-11-09T14:23:26.348Z,22.90
2023-11-09T14:25:53.079Z,22.65
2023-11-09T14:28:22.350Z,20.08
2023-11-09T14:30:49.022Z,21.55
2023-11-09T14:33:20.042Z,18.58
2023-11-09T14:35:47.278Z,19.80
2023-11-09T14:38:14.644Z,16.88
2023-11-09T14:40:48.587Z,19.52
2023-11-09T14:43:16.449Z,24.02
2023-11-09T14:45:47.063Z,21.25
2023-11-09T14:48:14.703Z,16.90
2023-11-09T14:50:43.066Z,27.98
2023-11-09T14:53:09.943Z,28.33
2023-11-09T14:55:41.099Z,28.27
2023-11-09T14:58:15.697Z,23.67
2023-11-09T15:00:48.165Z,30.92
2023-11-09T15:03:24.379Z,22.10
2023-11-09T15:05:57.626Z,20.23
2023-11-09T15:08:28.439Z,22.65
2023-11-09T15:10:59.494Z,17.55
2023-11-09T15:13:29.972Z,20.52
2023-11-09T15:16:03.834Z,22.77
2023-11-09T15:18:35.763Z,21.08
2023-11-09T15:21:03.636Z,15.13
2023-11-09T15:23:32.441Z,15.27
2023-11-09T15:25:59.040Z,18.23
2023-11-09T15:28:25.648Z,18.75
2023-11-09T15:30:52.622Z,19.88
2023-11-09T15:33:22.502Z,16.10
2023-11-09T15:35:50.828Z,20.00
2023-11-09T15:38:17.369Z,21.73
2023-11-09T15:41:15.506Z,23.80
2023-11-09T15:43:38.128Z,17.20
2023-11-09T15:48:41.186Z,12.43
2023-11-09T15:51:08.104Z,14.68
2023-11-09T15:53:35.640Z,16.10
2023-11-09T15:56:02.386Z,16.60
2023-11-09T15:58:29.284Z,16.60
2023-11-09T16:00:57.530Z,17.77
2023-11-09T16:03:25.388Z,18.38
2023-11-09T16:05:54.791Z,15.45
2023-11-09T16:08:21.423Z,15.07
2023-11-09T16:10:48.121Z,16.38
2023-11-09T16:13:15.607Z,15.50
2023-11-09T16:15:42.195Z,16.15
2023-11-09T16:18:08.715Z,17.55
2023-11-09T16:20:37.811Z,16.00
2023-11-09T16:23:08.216Z,14.70
2023-11-09T16:25:35.976Z,18.52
2023-11-09T16:28:09.580Z,17.27
2023-11-09T16:30:38.423Z,19.13
2023-11-09T16:33:10.312Z,20.45
2023-11-09T16:35:37.637Z,17.02
2023-11-09T16:38:24.745Z,16.77
2023-11-09T16:43:44.660Z,18.80
2023-11-09T16:46:14.369Z,20.55
2023-11-09T16:48:41.021Z,18.30
2023-11-09T16:51:08.557Z,19.45
2023-11-09T16:53:35.702Z,18.48
2023-11-09T16:56:02.553Z,17.98
2023-11-09T16:58:29.023Z,21.58
2023-11-09T17:00:57.237Z,18.85
2023-11-09T17:03:24.618Z,21.73
2023-11-09T17:05:53.819Z,22.25
2023-11-09T17:08:20.285Z,19.48
2023-11-09T17:10:47.813Z,18.17
2023-11-09T17:13:14.249Z,18.13
2023-11-09T17:15:43.234Z,17.63
2023-11-09T17:18:11.923Z,20.50
2023-11-09T17:20:39.836Z,20.05
2023-11-09T17:23:07.596Z,31.33
2023-11-09T17:25:35.169Z,35.83
2023-11-09T17:28:03.709Z,30.85
2023-11-09T17:30:30.274Z,27.95
2023-11-09T17:32:57.330Z,25.10
2023-11-09T17:35:27.964Z,29.20
2023-11-09T17:37:55.253Z,29.55
2023-11-09T17:40:21.713Z,36.20
2023-11-09T17:42:48.136Z,40.45
2023-11-09T17:45:14.563Z,41.42
2023-11-09T17:47:40.958Z,36.80
2023-11-09T17:50:10.899Z,37.75
2023-11-09T17:52:38.080Z,38.47
2023-11-09T17:55:06.060Z,36.05
2023-11-09T17:57:32.920Z,32.92
2023-11-09T17:59:59.389Z,33.40
2023-11-09T18:02:26.338Z,33.03
2023-11-09T18:04:52.867Z,31.42
2023-11-09T18:07:19.310Z,31.23
2023-11-09T18:09:46.077Z,30.67
2023-11-09T18:12:14.581Z,31.42
2023-11-09T18:14:44.481Z,28.52
2023-11-09T18:17:13.685Z,28.98
2023-11-09T18:19:40.675Z,287.02
2023-11-09T18:22:07.099Z,30.17
2023-11-09T18:24:33.564Z,34.03
2023-11-09T18:26:59.925Z,57.15
2023-11-09T18:29:26.370Z,31.25
2023-11-09T18:31:52.817Z,91.65
2023-11-09T18:34:19.231Z,34.72
2023-11-09T18:36:45.900Z,43.22
2023-11-09T18:39:12.637Z,67.93
2023-11-09T18:41:39.761Z,197.18
2023-11-09T18:44:06.521Z,56.72
2023-11-09T18:46:33.335Z,81.85
2023-11-09T18:51:07.941Z,56.15
2023-11-09T18:51:47.008Z,46.78
2023-11-09T18:54:13.663Z,59.92
2023-11-09T18:56:40.261Z,73.03
2023-11-09T18:59:06.811Z,79.40
2023-11-09T19:01:33.357Z,81.25
2023-11-09T19:06:30.875Z,69.95
2023-11-09T19:08:58.430Z,59.15
2023-11-09T19:11:26.632Z,60.20
2023-11-09T19:13:55.908Z,39.42
2023-11-09T19:16:23.315Z,35.95
2023-11-09T19:18:49.980Z,32.05
2023-11-09T19:23:47.023Z,31.17
2023-11-09T19:26:13.520Z,32.35
2023-11-09T19:28:39.897Z,31.88
2023-11-09T19:31:07.201Z,29.60
2023-11-09T19:33:37.584Z,31.27
2023-11-09T19:36:05.193Z,28.50
2023-11-09T19:38:31.816Z,34.03
2023-11-09T19:40:58.233Z,35.00
2023-11-09T19:43:24.714Z,29.05
2023-11-09T19:45:51.223Z,30.58
2023-11-09T19:48:17.748Z,32.33
2023-11-09T19:50:47.619Z,33.50
2023-11-09T19:53:14.284Z,31.13
2023-11-09T19:55:40.770Z,32.28
2023-11-09T19:58:07.262Z,33.47
2023-11-09T20:00:34.853Z,34.47
2023-11-09T20:03:04.635Z,36.72
2023-11-09T20:05:34.404Z,33.42
2023-11-09T20:08:00.846Z,31.50
2023-11-09T20:10:27.699Z,28.27
2023-11-09T20:12:54.155Z,26.85
2023-11-09T20:15:25.934Z,27.63
2023-11-09T20:17:52.420Z,27.75
2023-11-09T20:20:18.855Z,30.13
2023-11-09T20:22:45.347Z,26.70
2023-11-09T20:25:11.967Z,31.02
2023-11-09T20:27:39.542Z,28.50
2023-11-09T20:30:07.024Z,26.10
2023-11-09T20:32:34.617Z,25.42
2023-11-09T20:35:01.111Z,24.10
2023-11-09T20:37:27.812Z,23.33
2023-11-09T20:39:55.637Z,23.52
2023-11-09T20:42:23.335Z,23.55
2023-11-09T20:44:50.209Z,25.52
2023-11-09T20:47:18.563Z,23.58
2023-11-09T20:49:45.612Z,24.23
2023-11-09T20:52:12.092Z,22.52
2023-11-09T20:54:38.523Z,26.20
2023-11-09T20:57:05.091Z,22.63
2023-11-09T20:59:31.464Z,25.13
2023-11-09T21:01:58.178Z,22.65
2023-11-09T21:04:24.769Z,22.33
2023-11-09T21:06:54.296Z,22.92
2023-11-09T21:09:24.562Z,23.15
2023-11-09T21:11:52.664Z,23.10
2023-11-09T21:14:19.059Z,24.65
2023-11-09T21:16:48.006Z,23.27
2023-11-09T21:19:16.588Z,23.95
2023-11-09T21:21:42.993Z,24.77
2023-11-09T21:24:09.616Z,23.40
2023-11-09T21:26:36.073Z,23.60
2023-11-09T21:29:02.462Z,23.05
2023-11-09T21:31:30.941Z,24.55
2023-11-09T21:33:57.605Z,24.00
2023-11-09T21:36:24.260Z,21.70
2023-11-09T21:38:50.776Z,20.73
2023-11-09T21:41:18.033Z,20.35
2023-11-09T21:43:44.615Z,21.02
2023-11-09T21:46:11.062Z,23.42
2023-11-09T21:48:39.528Z,22.35
2023-11-09T21:51:06.077Z,22.77
2023-11-09T21:53:32.479Z,24.08
2023-11-09T21:55:58.878Z,22.98
2023-11-09T21:58:25.357Z,22.30
2023-11-09T22:00:53.169Z,22.13
2023-11-09T22:03:20.949Z,22.27
2023-11-09T22:05:48.637Z,21.65
2023-11-09T22:08:15.205Z,22.00
2023-11-09T22:10:41.885Z,21.77
2023-11-09T22:13:09.199Z,21.25
2023-11-09T22:15:35.795Z,28.15
2023-11-09T22:18:03.058Z,24.27
2023-11-09T22:20:29.617Z,23.85
2023-11-09T22:22:56.012Z,25.02
2023-11-09T22:25:22.449Z,24.00
2023-11-09T22:27:48.874Z,19.08
2023-11-09T22:30:15.349Z,21.08
2023-11-09T22:32:42.170Z,21.85
2023-11-09T22:35:08.804Z,21.20
2023-11-09T22:37:35.243Z,20.67
2023-11-09T22:40:05.266Z,20.88
2023-11-09T22:42:33.015Z,20.65
2023-11-09T22:44:59.580Z,22.48
2023-11-09T22:47:25.985Z,21.52
2023-11-09T22:49:52.366Z,20.60
2023-11-09T22:52:21.516Z,18.05
2023-11-09T22:54:47.909Z,19.73
2023-11-09T22:57:14.365Z,21.50
2023-11-09T22:59:40.803Z,19.00
2023-11-09T23:02:08.940Z,21.25
2023-11-09T23:04:35.494Z,21.67
2023-11-09T23:07:01.970Z,21.30
2023-11-09T23:09:28.670Z,21.13
2023-11-09T23:11:55.095Z,19.92
2023-11-09T23:14:21.626Z,19.17
2023-11-09T23:16:48.105Z,20.15
2023-11-09T23:19:14.846Z,18.67
2023-11-09T23:21:41.354Z,17.45
2023-11-09T23:24:10.598Z,17.80
2023-11-09T23:26:37.154Z,16.65
2023-11-09T23:29:03.539Z,16.98
2023-11-09T23:31:30.038Z,18.58
2023-11-09T23:34:01.272Z,16.27
2023-11-09T23:36:28.752Z,15.15
2023-11-09T23:38:55.145Z,14.77
2023-11-09T23:41:21.878Z,14.73
2023-11-09T23:43:48.347Z,14.38
2023-11-09T23:46:14.770Z,15.38
2023-11-09T23:48:41.153Z,16.20
2023-11-09T23:51:07.626Z,16.00
2023-11-09T23:53:34.020Z,13.63
2023-11-09T23:56:00.487Z,14.63
2023-11-09T23:58:27.423Z,14.13
